Time;durP1;ratioP1;P1;durP2;ratioP2;P2;SDS_P1;SDS_P2;PMS_P1;PMS_P2;Temp;Humidity;BMP_temperature;BMP_pressure;BME280_temperature;BME280_humidity;BME280_pressure;Samples;Min_cycle;Max_cycle;Signal;HPM_P1;HPM_P2
2021/07/17 00:02:01;;;;;;;16.02;12.78;;;;;;;20.49;85.59;100619.56;1731341;82;27512;-78
2021/07/17 00:04:28;;;;;;;17.55;12.95;;;;;;;20.47;85.96;100610.30;1734466;82;25903;-78
2021/07/17 00:06:56;;;;;;;22.70;12.78;;;;;;;20.47;86.04;100606.22;1682904;82;26122;-79
2021/07/17 00:09:23;;;;;;;12.70;10.68;;;;;;;20.44;85.83;100604.02;1684090;82;26268;-78
2021/07/17 00:11:50;;;;;;;14.83;8.90;;;;;;;20.42;85.80;100607.50;1707945;82;25904;-79
2021/07/17 00:14:17;;;;;;;16.57;10.28;;;;;;;20.36;85.50;100604.42;1731898;82;27467;-79
2021/07/17 00:16:45;;;;;;;11.68;10.05;;;;;;;20.32;85.62;100608.72;1655122;82;25743;-78
2021/07/17 00:19:12;;;;;;;13.62;10.20;;;;;;;20.30;85.74;100601.88;1659694;83;25994;-78
2021/07/17 00:21:39;;;;;;;23.70;10.93;;;;;;;20.28;85.80;100601.30;1708073;83;26690;-79
2021/07/17 00:24:06;;;;;;;14.73;10.48;;;;;;;20.28;85.91;100587.70;1736328;82;25875;-78
2021/07/17 00:26:33;;;;;;;17.15;11.15;;;;;;;20.27;85.87;100592.34;1677738;82;27180;-79
2021/07/17 00:29:00;;;;;;;19.27;12.18;;;;;;;20.27;86.09;100595.59;1688510;82;25785;-78
2021/07/17 00:31:27;;;;;;;15.13;12.37;;;;;;;20.25;86.20;100599.10;1690890;82;25817;-79
2021/07/17 00:33:54;;;;;;;17.17;12.45;;;;;;;20.27;86.37;100603.75;1729023;82;26213;-79
2021/07/17 00:36:21;;;;;;;17.17;12.43;;;;;;;20.28;86.78;100603.50;1684711;82;25916;-79
2021/07/17 00:38:48;;;;;;;15.38;12.95;;;;;;;20.29;86.84;100609.77;1685648;82;27564;-79
2021/07/17 00:41:15;;;;;;;15.50;13.15;;;;;;;20.28;86.79;100613.02;1713686;82;26543;-78
2021/07/17 00:43:42;;;;;;;15.43;13.25;;;;;;;20.28;87.07;100618.98;1729208;82;25909;-78
2021/07/17 00:46:09;;;;;;;16.97;13.22;;;;;;;20.27;87.16;100622.27;1664427;82;25861;-78
2021/07/17 00:48:38;;;;;;;18.48;14.35;;;;;;;20.26;87.20;100619.25;1685208;82;26076;-79
2021/07/17 00:51:06;;;;;;;17.17;13.98;;;;;;;20.28;87.45;100608.11;1727794;82;28230;-78
2021/07/17 00:53:33;;;;;;;17.12;14.60;;;;;;;20.29;87.52;100606.52;1682745;83;25814;-79
2021/07/17 00:56:01;;;;;;;18.77;13.53;;;;;;;20.30;87.50;100609.51;1728590;82;25865;-78
2021/07/17 00:58:32;;;;;;;15.78;13.20;;;;;;;20.31;87.33;100608.45;1682116;82;26135;-78
2021/07/17 01:01:00;;;;;;;18.05;15.03;;;;;;;20.30;87.33;100613.59;1695380;83;25899;-78
2021/07/17 01:03:29;;;;;;;24.27;15.80;;;;;;;20.30;87.47;100615.48;1681150;83;27447;-79
2021/07/17 01:05:56;;;;;;;19.45;16.50;;;;;;;20.31;87.60;100613.89;1720065;82;26454;-79
2021/07/17 01:08:24;;;;;;;25.72;18.17;;;;;;;20.32;87.73;100616.05;1709163;82;25833;-78
2021/07/17 01:10:51;;;;;;;23.07;17.70;;;;;;;20.33;87.82;100625.34;1680037;82;26200;-78
2021/07/17 01:13:18;;;;;;;21.82;16.93;;;;;;;20.32;87.81;100630.48;1683755;82;25832;-79
2021/07/17 01:15:46;;;;;;;18.35;14.75;;;;;;;20.32;87.93;100625.58;1728531;82;27471;-78
2021/07/17 01:18:14;;;;;;;16.27;14.35;;;;;;;20.34;87.98;100631.05;1689205;82;26459;-78
2021/07/17 01:20:41;;;;;;;20.12;15.55;;;;;;;20.36;88.05;100632.98;1681701;82;25845;-79
2021/07/17 01:23:08;;;;;;;16.40;14.20;;;;;;;20.38;88.05;100630.04;1681173;82;26398;-79
2021/07/17 01:25:36;;;;;;;20.37;13.35;;;;;;;20.38;88.13;100621.88;1724803;82;25771;-79
2021/07/17 01:28:04;;;;;;;18.02;14.43;;;;;;;20.37;88.04;100614.77;1687357;83;28238;-78
2021/07/17 01:30:34;;;;;;;16.62;14.00;;;;;;;20.37;88.13;100609.34;1688835;82;26525;-78
2021/07/17 01:33:02;;;;;;;16.48;13.60;;;;;;;20.36;87.98;100606.34;1684866;83;25930;-79
2021/07/17 01:35:29;;;;;;;15.30;13.15;;;;;;;20.35;87.98;100595.16;1681728;83;25894;-79
2021/07/17 01:37:56;;;;;;;16.82;13.55;;;;;;;20.33;87.91;100602.75;1677234;82;25397;-78
2021/07/17 01:40:23;;;;;;;32.05;22.17;;;;;;;20.31;88.04;100604.38;1729520;82;27613;-79
2021/07/17 01:42:54;;;;;;;29.15;20.15;;;;;;;20.32;88.38;100609.25;1679099;82;25887;-78
2021/07/17 01:45:26;;;;;;;23.62;16.85;;;;;;;20.32;88.55;100607.36;1709059;82;25760;-79
2021/07/17 01:47:55;;;;;;;21.75;16.57;;;;;;;20.31;88.73;100615.78;1684478;81;26331;-78
2021/07/17 01:50:26;;;;;;;23.55;15.48;;;;;;;20.31;88.92;100608.45;1730006;82;25746;-79
2021/07/17 01:52:53;;;;;;;16.80;14.55;;;;;;;20.33;89.01;100598.67;1708317;82;28562;-79
2021/07/17 01:55:20;;;;;;;16.48;14.45;;;;;;;20.33;88.94;100602.22;1710876;82;25895;-79
2021/07/17 01:57:49;;;;;;;16.97;13.65;;;;;;;20.28;88.77;100594.50;1644420;82;26047;-78
2021/07/17 02:00:19;;;;;;;18.10;12.13;;;;;;;20.26;88.69;100593.94;1731822;82;26268;-78
2021/07/17 02:02:47;;;;;;;20.07;13.10;;;;;;;20.25;88.64;100591.74;1685456;82;25588;-78
2021/07/17 02:05:16;;;;;;;18.20;12.50;;;;;;;20.21;88.68;100585.16;1730839;82;27467;-79
2021/07/17 02:07:44;;;;;;;16.85;11.95;;;;;;;20.16;88.65;100582.88;1684898;82;25856;-79
2021/07/17 02:10:15;;;;;;;14.13;12.63;;;;;;;20.11;88.68;100586.34;1733555;82;25812;-78
2021/07/17 02:13:10;;;;;;;15.25;13.50;;;;;;;20.08;88.78;100585.47;1680660;82;26650;-78
2021/07/17 02:15:50;;;;;;;16.75;12.73;;;;;;;20.08;88.96;100592.27;1710753;83;25897;-78
2021/07/17 02:18:26;;;;;;;16.62;13.68;;;;;;;20.08;88.89;100584.67;1682558;82;27500;-79
2021/07/17 02:20:54;;;;;;;18.52;13.80;;;;;;;20.07;88.86;100574.33;1727363;82;25637;-79
2021/07/17 02:23:21;;;;;;;20.17;14.65;;;;;;;20.07;89.05;100573.49;1714930;82;25627;-79
2021/07/17 02:25:48;;;;;;;18.70;14.03;;;;;;;20.10;89.03;100574.37;1680386;82;25641;-79
2021/07/17 02:28:15;;;;;;;18.65;14.45;;;;;;;20.09;88.94;100569.98;1683725;82;25821;-78
2021/07/17 02:30:42;;;;;;;20.40;16.27;;;;;;;20.10;88.90;100573.01;1730514;82;27617;-79
2021/07/17 02:33:10;;;;;;;19.12;15.30;;;;;;;20.09;89.05;100574.90;1674252;82;26139;-79
2021/07/17 02:35:37;;;;;;;18.48;13.93;;;;;;;20.06;88.86;100578.10;1708039;81;26051;-79
2021/07/17 02:38:05;;;;;;;17.25;13.35;;;;;;;20.02;88.62;100566.08;1683656;82;26319;-78
2021/07/17 02:40:32;;;;;;;19.32;13.60;;;;;;;19.96;88.65;100571.16;1727731;82;25359;-78
2021/07/17 02:43:00;;;;;;;22.35;14.78;;;;;;;19.94;88.77;100570.05;1683163;82;27649;-79
2021/07/17 02:45:27;;;;;;;20.15;13.65;;;;;;;19.94;88.94;100574.66;1708993;82;25930;-78
2021/07/17 02:47:54;;;;;;;20.45;14.50;;;;;;;19.92;88.78;100566.77;1677610;82;25423;-79
2021/07/17 02:50:21;;;;;;;18.00;14.45;;;;;;;19.90;88.74;100572.98;1725210;81;26245;-79
2021/07/17 02:52:48;;;;;;;20.43;14.75;;;;;;;19.87;88.79;100569.92;1688931;82;25837;-78
2021/07/17 02:55:16;;;;;;;20.27;14.63;;;;;;;19.87;88.99;100575.36;1680485;83;27519;-79
2021/07/17 02:57:43;;;;;;;20.65;14.75;;;;;;;19.87;89.01;100586.23;1684049;82;26237;-78
2021/07/17 03:00:13;;;;;;;18.35;16.23;;;;;;;19.89;88.90;100588.16;1728288;82;25891;-79
2021/07/17 03:02:40;;;;;;;20.80;15.90;;;;;;;19.89;88.92;100582.20;1683670;82;26278;-79
2021/07/17 03:05:09;;;;;;;22.32;16.27;;;;;;;19.89;88.99;100584.92;1703508;82;25360;-79
2021/07/17 03:07:36;;;;;;;26.33;16.75;;;;;;;19.88;89.04;100580.57;1703068;80;27549;-79
2021/07/17 03:10:05;;;;;;;23.60;17.15;;;;;;;19.89;89.12;100574.05;1741419;80;25775;-79
2021/07/17 03:12:32;;;;;;;20.43;15.53;;;;;;;19.91;89.19;100575.15;1699006;80;25750;-79
2021/07/17 03:14:59;;;;;;;21.27;15.30;;;;;;;19.88;89.17;100569.70;1700508;81;26242;-79
2021/07/17 03:17:29;;;;;;;19.42;15.15;;;;;;;19.83;89.21;100571.49;1652821;81;25888;-78
2021/07/17 03:19:55;;;;;;;20.37;15.43;;;;;;;19.82;89.36;100568.50;1708554;81;27628;-79
2021/07/17 03:22:22;;;;;;;23.10;16.45;;;;;;;19.81;89.40;100577.19;1679910;81;25923;-79
2021/07/17 03:24:50;;;;;;;27.80;18.30;;;;;;;19.84;89.63;100586.75;1703594;80;25901;-78
2021/07/17 03:27:17;;;;;;;29.37;18.87;;;;;;;19.85;89.83;100597.36;1710312;80;26548;-79
2021/07/17 03:29:44;;;;;;;22.85;16.45;;;;;;;19.90;90.04;100605.61;1741518;80;25981;-78
2021/07/17 03:32:11;;;;;;;26.82;17.85;;;;;;;19.93;90.06;100592.06;1685766;82;28331;-79
2021/07/17 03:34:38;;;;;;;17.90;15.40;;;;;;;19.98;90.19;100588.88;1700427;82;26010;-79
2021/07/17 03:37:05;;;;;;;23.20;15.50;;;;;;;20.05;90.27;100585.98;1675285;84;26537;-79
2021/07/17 03:39:32;;;;;;;18.87;15.68;;;;;;;20.11;90.31;100584.16;1733637;81;25875;-79
2021/07/17 03:41:59;;;;;;;23.52;15.90;;;;;;;20.17;90.36;100585.87;1686705;81;25884;-79
2021/07/17 03:44:27;;;;;;;20.30;15.18;;;;;;;20.24;90.27;100589.28;1680350;81;27483;-79
2021/07/17 03:46:54;;;;;;;25.52;14.45;;;;;;;20.26;90.07;100584.41;1705461;80;26502;-79
2021/07/17 03:49:22;;;;;;;21.70;16.07;;;;;;;20.28;90.05;100582.27;1716938;81;26449;-79
2021/07/17 03:51:49;;;;;;;20.35;14.73;;;;;;;20.31;89.99;100585.86;1692835;80;25830;-79
2021/07/17 03:54:16;;;;;;;18.62;13.83;;;;;;;20.32;89.95;100596.48;1741470;80;26041;-79
2021/07/17 03:56:43;;;;;;;16.05;13.72;;;;;;;20.34;89.95;100603.02;1709398;80;27352;-78
2021/07/17 03:59:10;;;;;;;18.90;13.80;;;;;;;20.32;89.96;100597.84;1726170;80;26056;-79
2021/07/17 04:01:37;;;;;;;18.92;14.10;;;;;;;20.34;90.08;100602.48;1704383;82;25838;-79
2021/07/17 04:04:07;;;;;;;19.95;15.95;;;;;;;20.37;90.19;100607.45;1704907;80;25864;-78
2021/07/17 04:06:35;;;;;;;17.15;13.62;;;;;;;20.40;90.32;100602.05;1709144;82;25938;-79
2021/07/17 04:09:03;;;;;;;19.52;15.18;;;;;;;20.41;90.39;100605.03;1738254;80;27550;-79
2021/07/17 04:11:30;;;;;;;18.77;14.55;;;;;;;20.41;90.62;100601.78;1687650;82;25814;-79
2021/07/17 04:13:58;;;;;;;20.45;14.87;;;;;;;20.47;90.68;100593.14;1685480;82;26106;-78
2021/07/17 04:16:25;;;;;;;22.80;14.47;;;;;;;20.52;90.71;100591.33;1673930;82;26469;-79
2021/07/17 04:18:52;;;;;;;23.22;15.63;;;;;;;20.58;90.75;100590.84;1741568;80;25901;-79
2021/07/17 04:21:19;;;;;;;18.00;14.95;;;;;;;20.62;90.79;100590.09;1693959;83;27646;-79
2021/07/17 04:23:46;;;;;;;19.25;14.00;;;;;;;20.66;90.69;100587.15;1663976;81;25764;-79
2021/07/17 04:26:13;;;;;;;20.43;13.53;;;;;;;20.71;90.81;100590.48;1681149;81;25806;-79
2021/07/17 04:28:40;;;;;;;14.73;13.22;;;;;;;20.73;90.76;100591.88;1697272;83;26277;-79
2021/07/17 04:31:07;;;;;;;42.25;21.70;;;;;;;20.78;90.87;100593.28;1722572;81;25779;-79
2021/07/17 04:33:34;;;;;;;22.48;15.80;;;;;;;20.82;90.72;100587.34;1653249;81;27513;-79
2021/07/17 04:36:01;;;;;;;19.05;14.55;;;;;;;20.87;90.78;100588.77;1674380;83;25892;-79
2021/07/17 04:38:28;;;;;;;23.45;13.30;;;;;;;20.93;90.84;100591.30;1697532;81;25691;-78
2021/07/17 04:40:55;;;;;;;17.32;13.58;;;;;;;20.97;90.50;100591.61;1730180;81;26762;-79
2021/07/17 04:43:22;;;;;;;15.15;12.47;;;;;;;20.98;90.58;100591.34;1659969;81;25905;-78
2021/07/17 04:45:49;;;;;;;16.45;13.40;;;;;;;21.00;90.79;100589.19;1672874;81;27541;-79
2021/07/17 04:48:16;;;;;;;16.45;12.68;;;;;;;21.02;90.86;100589.75;1726632;80;25835;-79
2021/07/17 04:50:43;;;;;;;16.40;12.88;;;;;;;21.07;90.96;100590.38;1736726;80;25984;-79
2021/07/17 04:53:10;;;;;;;18.12;13.20;;;;;;;21.12;90.92;100590.45;1701799;82;25838;-78
2021/07/17 04:55:38;;;;;;;21.68;13.62;;;;;;;21.15;90.82;100584.50;1689919;82;25313;-78
2021/07/17 04:58:06;;;;;;;15.88;13.55;;;;;;;21.15;90.47;100585.30;1696056;83;27593;-78
2021/07/17 05:00:33;;;;;;;16.42;12.78;;;;;;;21.20;91.02;100589.98;1749667;80;26609;-78
2021/07/17 05:03:00;;;;;;;18.73;12.35;;;;;;;21.25;90.91;100590.88;1684041;81;26612;-78
2021/07/17 05:05:27;;;;;;;17.02;12.73;;;;;;;21.28;90.63;100594.97;1696752;82;25998;-78
2021/07/17 05:07:54;;;;;;;14.23;11.75;;;;;;;21.31;90.81;100596.66;1669911;82;26612;-79
2021/07/17 05:10:24;;;;;;;14.78;11.70;;;;;;;21.33;90.74;100598.58;1740295;81;27572;-78
2021/07/17 05:12:52;;;;;;;16.07;12.37;;;;;;;21.35;90.85;100594.23;1688481;81;25848;-78
2021/07/17 05:15:20;;;;;;;16.85;12.23;;;;;;;21.39;90.92;100602.17;1690005;82;25991;-78
2021/07/17 05:17:47;;;;;;;17.57;11.85;;;;;;;21.44;91.19;100594.05;1705066;81;25813;-78
2021/07/17 05:20:15;;;;;;;13.83;11.63;;;;;;;21.52;91.04;100596.30;1729362;81;25749;-78
2021/07/17 05:22:43;;;;;;;16.87;11.80;;;;;;;21.58;90.83;100598.55;1695850;81;27133;-78
2021/07/17 05:25:10;;;;;;;15.50;11.12;;;;;;;21.64;90.83;100598.88;1685339;82;25873;-77
2021/07/17 05:27:37;;;;;;;15.40;10.53;;;;;;;21.70;90.90;100601.92;1708537;82;26059;-77
2021/07/17 05:30:06;;;;;;;14.53;10.90;;;;;;;21.73;91.00;100599.48;1727967;82;26077;-77
2021/07/17 05:32:34;;;;;;;20.32;12.10;;;;;;;21.82;91.31;100600.70;1710408;81;26559;-77
2021/07/17 05:35:01;;;;;;;15.38;10.78;;;;;;;21.89;90.77;100602.67;1723663;80;27458;-78
2021/07/17 05:37:29;;;;;;;15.68;10.10;;;;;;;21.92;90.90;100605.43;1722145;80;25822;-77
2021/07/17 05:39:56;;;;;;;15.40;10.18;;;;;;;21.97;90.76;100599.45;1754822;80;25895;-78
2021/07/17 05:42:24;;;;;;;15.45;10.43;;;;;;;21.99;90.45;100600.02;1693351;81;26069;-78
2021/07/17 05:44:51;;;;;;;15.50;9.78;;;;;;;22.05;90.76;100602.23;1695488;80;25861;-79
2021/07/17 05:47:19;;;;;;;14.20;10.18;;;;;;;22.13;90.90;100607.22;1701285;82;27452;-78
2021/07/17 05:49:46;;;;;;;13.00;9.35;;;;;;;22.19;90.33;100604.27;1710486;83;26005;-78
2021/07/17 05:52:13;;;;;;;15.90;9.60;;;;;;;22.25;90.11;100603.74;1662836;83;25900;-78
2021/07/17 05:54:40;;;;;;;13.18;9.85;;;;;;;22.35;90.31;100597.55;1711142;83;25815;-78
2021/07/17 05:57:08;;;;;;;15.63;10.30;;;;;;;22.42;90.04;100595.38;1699057;82;25821;-78
2021/07/17 05:59:36;;;;;;;14.63;9.48;;;;;;;22.52;90.23;100594.09;1718577;83;27465;-78
2021/07/17 06:02:05;;;;;;;11.70;8.20;;;;;;;22.64;89.85;100591.98;1675542;83;25375;-78
2021/07/17 06:04:33;;;;;;;13.05;8.55;;;;;;;22.72;89.54;100590.11;1675594;83;25897;-78
2021/07/17 06:07:00;;;;;;;10.43;9.28;;;;;;;22.79;89.29;100588.79;1678567;84;25829;-78
2021/07/17 06:09:27;;;;;;;11.48;8.80;;;;;;;22.92;89.44;100583.38;1699130;83;25985;-77
2021/07/17 06:11:54;;;;;;;9.95;8.48;;;;;;;23.03;89.56;100582.86;1659989;83;27499;-78
2021/07/17 06:14:22;;;;;;;10.72;7.37;;;;;;;23.12;89.03;100588.08;1650835;84;25943;-78
2021/07/17 06:16:49;;;;;;;13.62;8.60;;;;;;;23.19;88.12;100588.63;1689066;83;25843;-78
2021/07/17 06:19:16;;;;;;;14.85;8.33;;;;;;;23.25;87.69;100593.00;1709359;83;26252;-78
2021/07/17 06:21:43;;;;;;;13.95;8.75;;;;;;;23.29;87.37;100595.50;1673053;83;25860;-78
2021/07/17 06:24:11;;;;;;;12.47;8.43;;;;;;;23.35;88.02;100592.52;1665632;84;27593;-78
2021/07/17 06:26:38;;;;;;;14.75;9.20;;;;;;;23.47;88.29;100590.36;1693278;83;25823;-78
2021/07/17 06:29:05;;;;;;;15.95;8.70;;;;;;;23.56;87.52;100598.31;1718818;83;26572;-78
2021/07/17 06:31:32;;;;;;;11.38;8.63;;;;;;;23.68;87.97;100604.86;1668663;83;26029;-78
2021/07/17 06:33:59;;;;;;;14.23;9.40;;;;;;;23.80;87.30;100602.70;1666016;84;25951;-78
2021/07/17 06:36:26;;;;;;;12.05;8.73;;;;;;;23.90;87.54;100605.97;1683756;83;27568;-78
2021/07/17 06:38:53;;;;;;;9.75;7.78;;;;;;;23.99;86.42;100601.59;1705089;83;26471;-78
2021/07/17 06:41:20;;;;;;;12.63;8.58;;;;;;;24.08;86.53;100608.19;1674639;83;26516;-78
2021/07/17 06:43:47;;;;;;;14.50;8.80;;;;;;;24.17;86.76;100608.71;1656981;83;25476;-78
2021/07/17 06:46:14;;;;;;;13.45;8.08;;;;;;;24.22;85.80;100609.25;1686335;83;25876;-78
2021/07/17 06:48:41;;;;;;;14.10;8.13;;;;;;;24.23;85.09;100609.55;1749295;80;27456;-78
2021/07/17 06:51:08;;;;;;;13.30;7.65;;;;;;;24.26;84.45;100607.06;1710667;80;25899;-78
2021/07/17 06:53:36;;;;;;;14.28;8.48;;;;;;;24.29;84.36;100611.17;1706322;82;26156;-78
2021/07/17 06:56:04;;;;;;;16.35;8.13;;;;;;;24.33;83.96;100607.61;1709479;81;25798;-78
2021/07/17 06:58:31;;;;;;;13.88;8.15;;;;;;;24.41;84.76;100607.58;1739372;81;25993;-78
2021/07/17 07:00:58;;;;;;;15.32;7.87;;;;;;;24.49;84.86;100611.11;1670154;81;27540;-79
2021/07/17 07:03:25;;;;;;;10.40;7.25;;;;;;;24.58;83.98;100610.81;1689969;83;25781;-77
2021/07/17 07:05:52;;;;;;;12.53;7.72;;;;;;;24.59;83.22;100605.63;1674334;82;25890;-78
2021/07/17 07:08:20;;;;;;;12.55;7.33;;;;;;;24.62;82.63;100606.41;1750934;80;25812;-78
2021/07/17 07:10:47;;;;;;;10.78;7.15;;;;;;;24.63;83.02;100612.18;1696927;83;26496;-78
2021/07/17 07:13:17;;;;;;;12.53;7.72;;;;;;;24.68;82.61;100602.55;1701221;81;27508;-79
2021/07/17 07:15:45;;;;;;;12.98;7.53;;;;;;;24.78;82.27;100601.74;1710024;82;25896;-79
2021/07/17 07:18:14;;;;;;;9.30;7.55;;;;;;;24.86;82.79;100605.27;1727458;80;25880;-79
2021/07/17 07:20:42;;;;;;;14.75;7.22;;;;;;;24.94;82.34;100604.13;1703007;80;25911;-77
2021/07/17 07:23:09;;;;;;;11.95;7.58;;;;;;;24.98;81.87;100598.35;1712935;81;25840;-78
2021/07/17 07:25:36;;;;;;;16.40;7.12;;;;;;;25.06;81.60;100612.04;1692655;81;27534;-78
2021/07/17 07:28:04;;;;;;;12.65;7.50;;;;;;;25.10;81.37;100610.37;1745603;80;25942;-78
2021/07/17 07:30:31;;;;;;;11.85;6.85;;;;;;;25.14;81.32;100605.41;1690884;83;25898;-78
2021/07/17 07:32:58;;;;;;;10.82;6.60;;;;;;;25.21;81.30;100610.59;1698975;81;26257;-78
2021/07/17 07:35:26;;;;;;;11.43;6.72;;;;;;;25.26;80.78;100611.91;1708798;82;26347;-78
2021/07/17 07:37:54;;;;;;;12.78;6.47;;;;;;;25.34;81.18;100611.34;1740495;80;27524;-78
2021/07/17 07:40:24;;;;;;;13.05;7.05;;;;;;;25.44;80.85;100618.70;1687015;83;25921;-78
2021/07/17 07:42:51;;;;;;;8.40;5.75;;;;;;;25.45;79.26;100617.61;1688179;83;25936;-78
2021/07/17 07:45:19;;;;;;;13.60;7.25;;;;;;;25.48;79.61;100620.59;1724510;81;26013;-78
2021/07/17 07:47:46;;;;;;;10.40;6.55;;;;;;;25.53;79.33;100620.57;1759337;80;25829;-78
2021/07/17 07:50:13;;;;;;;8.78;6.33;;;;;;;25.61;79.82;100628.73;1697712;81;27133;-78
2021/07/17 07:52:40;;;;;;;7.62;6.25;;;;;;;25.68;78.29;100633.36;1756202;80;26456;-78
2021/07/17 07:55:08;;;;;;;11.90;6.30;;;;;;;25.69;78.25;100631.69;1693433;82;26649;-78
2021/07/17 07:57:36;;;;;;;9.83;6.22;;;;;;;25.75;78.51;100633.83;1700501;80;25851;-78
2021/07/17 08:00:07;;;;;;;11.43;6.50;;;;;;;25.83;77.82;100636.78;1751140;80;25959;-78
2021/07/17 08:02:35;;;;;;;9.65;6.65;;;;;;;25.88;77.78;100638.67;1718474;80;27543;-78
2021/07/17 08:05:03;;;;;;;11.63;6.03;;;;;;;25.94;76.99;100633.41;1693283;82;25917;-78
2021/07/17 08:07:30;;;;;;;10.05;6.37;;;;;;;25.98;77.00;100644.90;1682177;82;25840;-78
2021/07/17 08:09:57;;;;;;;11.88;6.10;;;;;;;26.03;76.90;100647.61;1710947;81;26481;-78
2021/07/17 08:12:24;;;;;;;8.48;5.50;;;;;;;26.08;76.44;100647.30;1663800;81;25787;-78
2021/07/17 08:14:51;;;;;;;8.85;5.42;;;;;;;26.12;75.70;100649.22;1671225;81;27640;-78
2021/07/17 08:17:18;;;;;;;7.25;5.53;;;;;;;26.12;74.88;100649.77;1675309;83;25960;-78
2021/07/17 08:19:45;;;;;;;7.92;5.40;;;;;;;26.14;75.25;100650.29;1725735;82;25307;-78
2021/07/17 08:22:12;;;;;;;19.73;10.25;;;;;;;26.17;74.96;100656.05;1682672;81;25988;-78
2021/07/17 08:24:39;;;;;;;7.95;6.25;;;;;;;26.21;74.62;100644.75;1686986;81;26630;-78
2021/07/17 08:27:06;;;;;;;14.40;6.60;;;;;;;26.27;74.90;100642.22;1698894;80;27539;-78
2021/07/17 08:29:33;;;;;;;12.18;6.00;;;;;;;26.33;74.60;100641.59;1689990;83;25915;-78
2021/07/17 08:32:00;;;;;;;8.38;5.60;;;;;;;26.35;74.17;100642.95;1703427;80;26276;-78
2021/07/17 08:34:27;;;;;;;7.55;5.40;;;;;;;26.43;75.07;100644.27;1707064;80;25832;-78
2021/07/17 08:36:54;;;;;;;10.23;5.90;;;;;;;26.49;74.20;100643.09;1666668;81;25881;-78
2021/07/17 08:39:21;;;;;;;9.63;6.05;;;;;;;26.53;74.44;100650.47;1755010;80;28328;-78
2021/07/17 08:41:51;;;;;;;6.35;5.55;;;;;;;26.55;73.95;100644.68;1700089;80;25853;-78
2021/07/17 08:44:18;;;;;;;11.68;6.67;;;;;;;26.59;73.73;100645.73;1713139;80;26675;-78
2021/07/17 08:46:46;;;;;;;9.08;5.67;;;;;;;26.59;73.88;100641.06;1699677;81;26149;-78
2021/07/17 08:49:15;;;;;;;9.05;6.05;;;;;;;26.66;73.62;100643.47;1733158;81;26443;-78
2021/07/17 08:51:46;;;;;;;12.93;6.97;;;;;;;26.73;73.46;100650.27;1708331;80;27597;-78
2021/07/17 08:54:14;;;;;;;12.30;6.55;;;;;;;26.78;73.84;100645.82;1740712;80;25843;-78
2021/07/17 08:56:42;;;;;;;8.13;6.12;;;;;;;26.88;72.86;100638.84;1707522;81;25914;-78
2021/07/17 08:59:09;;;;;;;8.60;5.70;;;;;;;26.87;72.53;100638.02;1739896;81;26470;-78
2021/07/17 09:01:37;;;;;;;15.13;6.67;;;;;;;26.94;73.36;100636.30;1684249;80;26595;-78
2021/07/17 09:04:07;;;;;;;12.13;5.80;;;;;;;27.01;72.69;100636.19;1698808;80;28317;-78
2021/07/17 09:06:33;;;;;;;9.50;6.47;;;;;;;27.03;72.63;100632.59;1728966;80;26046;-78
2021/07/17 09:09:02;;;;;;;15.60;7.25;;;;;;;27.05;72.62;100633.69;1723089;81;25805;-78
2021/07/17 09:11:40;;;;;;;9.65;6.50;;;;;;;27.03;71.87;100631.79;1708902;81;26480;-78
2021/07/17 09:14:08;;;;;;;8.98;6.50;;;;;;;27.02;71.48;100628.22;1702697;81;25771;-78
2021/07/17 09:16:39;;;;;;;10.90;6.53;;;;;;;27.02;72.58;100629.59;1670499;82;27280;-78
2021/07/17 09:19:06;;;;;;;18.67;10.32;;;;;;;27.09;72.87;100626.48;1744089;81;35508;-78
2021/07/17 09:21:37;;;;;;;8.98;6.97;;;;;;;27.15;73.33;100625.30;1707086;81;25408;-78
2021/07/17 09:24:08;;;;;;;10.50;6.85;;;;;;;27.16;72.11;100622.82;1708809;81;26575;-78
2021/07/17 09:26:39;;;;;;;12.43;6.53;;;;;;;27.20;73.13;100622.48;1678133;83;25887;-78
2021/07/17 09:29:11;;;;;;;10.25;6.20;;;;;;;27.25;72.90;100619.09;1728186;82;28324;-78
2021/07/17 09:31:57;;;;;;;11.15;7.00;;;;;;;27.31;72.56;100611.58;1697645;80;25790;-78
2021/07/17 09:34:31;;;;;;;13.93;7.72;;;;;;;27.34;72.72;100616.50;1752342;81;25801;-78
2021/07/17 09:37:10;;;;;;;10.60;7.15;;;;;;;27.41;72.48;100605.44;1730024;80;25836;-78
2021/07/17 09:39:47;;;;;;;11.48;7.40;;;;;;;27.52;72.74;100606.64;1754752;80;25830;-78
2021/07/17 09:42:19;;;;;;;15.23;8.05;;;;;;;27.62;72.58;100610.05;1703795;80;27562;-78
2021/07/17 09:44:51;;;;;;;14.15;8.35;;;;;;;27.69;72.65;100606.93;1715244;80;25806;-79
2021/07/17 09:47:23;;;;;;;10.80;6.35;;;;;;;27.70;71.78;100603.87;1687365;83;26249;-78
2021/07/17 09:49:50;;;;;;;9.65;6.70;;;;;;;27.69;71.10;100606.37;1741950;80;25823;-78
2021/07/17 09:52:23;;;;;;;11.57;6.50;;;;;;;27.71;71.79;100605.52;1717296;81;25868;-78
2021/07/17 09:55:12;;;;;;;8.75;6.80;;;;;;;27.78;71.73;100604.55;1712727;81;27489;-79
2021/07/17 09:57:41;;;;;;;9.40;7.35;;;;;;;27.81;70.69;100599.02;1691076;81;26135;-78
2021/07/17 10:00:15;;;;;;;9.13;7.10;;;;;;;27.81;71.57;100599.02;1741472;80;25896;-78
2021/07/17 10:02:42;;;;;;;11.45;6.83;;;;;;;27.86;71.02;100594.26;1713490;80;26378;-78
2021/07/17 10:05:16;;;;;;;9.75;6.83;;;;;;;27.88;71.21;100587.89;1714884;80;26017;-78
2021/07/17 10:07:44;;;;;;;11.70;7.28;;;;;;;27.93;71.04;100586.41;1657481;83;27443;-78
2021/07/17 10:10:11;;;;;;;11.57;7.78;;;;;;;28.03;70.92;100584.08;1734560;81;25323;-78
2021/07/17 10:12:41;;;;;;;10.60;7.90;;;;;;;28.04;70.90;100590.66;1665604;81;25720;-78
2021/07/17 10:15:11;;;;;;;13.30;7.43;;;;;;;28.09;70.74;100585.06;1675118;84;25912;-78
2021/07/17 10:17:43;;;;;;;9.07;7.33;;;;;;;28.16;70.72;100588.22;1647355;82;25979;-78
2021/07/17 10:20:14;;;;;;;11.60;7.62;;;;;;;28.21;70.63;100583.19;1720846;81;28091;-78
2021/07/17 10:22:43;;;;;;;14.98;7.37;;;;;;;28.22;71.00;100577.39;1705581;80;25895;-79
2021/07/17 10:25:13;;;;;;;11.65;7.95;;;;;;;28.31;71.17;100583.02;1708751;81;25824;-78
2021/07/17 10:27:41;;;;;;;10.98;7.72;;;;;;;28.37;70.29;100580.41;1683857;83;26265;-79
2021/07/17 10:30:11;;;;;;;12.73;7.50;;;;;;;28.40;70.46;100574.86;1729258;82;26574;-79
2021/07/17 10:32:38;;;;;;;14.53;8.53;;;;;;;28.42;69.74;100580.88;1681173;83;27548;-78
2021/07/17 10:35:05;;;;;;;11.80;8.43;;;;;;;28.35;69.22;100575.77;1695659;82;25570;-79
2021/07/17 10:37:35;;;;;;;10.82;7.83;;;;;;;28.30;69.51;100563.45;1677129;81;25844;-78
2021/07/17 10:40:10;;;;;;;15.08;8.70;;;;;;;28.27;69.26;100568.22;1754191;80;26248;-79
2021/07/17 10:42:41;;;;;;;13.00;7.60;;;;;;;28.24;69.62;100568.81;1740656;80;26529;-79
2021/07/17 10:45:10;;;;;;;16.23;7.92;;;;;;;28.28;70.52;100564.33;1719462;81;45440;-78
2021/07/17 10:47:39;;;;;;;18.20;8.10;;;;;;;28.29;69.03;100565.97;1700177;80;25862;-79
2021/07/17 10:50:11;;;;;;;13.18;8.40;;;;;;;28.30;69.59;100563.45;1751733;80;25543;-79
2021/07/17 10:52:42;;;;;;;9.85;7.42;;;;;;;28.35;70.20;100561.99;1745523;81;26547;-78
2021/07/17 10:55:36;;;;;;;13.62;8.75;;;;;;;28.42;69.78;100564.34;1694527;81;25875;-78
2021/07/17 10:58:14;;;;;;;14.93;7.80;;;;;;;28.49;69.87;100561.98;1695825;83;27494;-78
2021/07/17 11:00:51;;;;;;;12.00;8.08;;;;;;;28.53;69.22;100560.27;1741545;80;25866;-79
2021/07/17 11:03:25;;;;;;;13.83;8.88;;;;;;;28.57;69.77;100557.19;1743187;80;25808;-78
2021/07/17 11:05:52;;;;;;;19.25;7.75;;;;;;;28.61;69.23;100563.72;1742125;80;26186;-79
2021/07/17 11:08:35;;;;;;;16.12;8.43;;;;;;;28.58;69.00;100557.42;1670283;82;25932;-79
2021/07/17 11:11:37;;;;;;;14.65;8.55;;;;;;;28.56;68.48;100553.58;1726477;81;28154;-79
2021/07/17 11:14:15;;;;;;;12.47;8.50;;;;;;;28.59;68.46;100561.24;1750182;81;25932;-78
2021/07/17 11:16:50;;;;;;;12.20;7.92;;;;;;;28.67;68.18;100556.97;1725144;81;25832;-79
2021/07/17 11:19:20;;;;;;;13.18;7.97;;;;;;;28.74;68.05;100556.80;1727656;80;25748;-78
2021/07/17 11:21:48;;;;;;;12.78;8.60;;;;;;;28.83;68.06;100556.33;1705532;83;25926;-79